Valencia, Spain

5:50 AM CEST on September 02, 2014 (GMT +0200)
Benimaclet | Change Station
CLOSE
Current Station
Personal Weather Station
Location: Valencia, COMUNIDAD VALENCIANA
Elevation: 62 ft
Nearby Weather Stations
Active Advisory: Extreme high temperature

Elev 62 ft 39.49 °N, 0.37 °W | Updated 59 seconds ago

Clear
Clear
76.5 °F
Feels Like 78 °F
N
0.0
Wind Variable Wind from SW
Gusts 12.0 mph

Today
High -- | Low -- °F
--% Chance of Precip.
Yesterday
High -- | Low -- °F
Precip. -- in
7:30 AM 8:31 PM
Waxing Crescent, 47% visible
Pressure 29.92 in
Visibility -9999.0 miles
Clouds
Heat Index 78 °F
Dew Point 70 °F
Humidity 80%
Rainfall 0.00 in
Snow Depth Not available.
UV 0.0 out of 12
Pollen Not available.
Air Quality Not available.
Flu Activity Not available.
METAR LEVC 020330Z 00000KT CAVOK 24/21 Q1013 NOSIG

More Conditions Fewer Conditions

Pressure 29.92 in
Visibility -9999.0 miles
Clouds
Heat Index 78 °F
Dew Point 70 °F
Humidity 80%
Rainfall 0.00 in
Snow Depth Not available.
UV 0.0 out of 12
Pollen Not available.
Air Quality Not available.
Flu Activity Not available.
METAR LEVC 020330Z 00000KT CAVOK 24/21 Q1013 NOSIG

More Conditions Fewer Conditions

10-Day Weather Forecast

Almanac

Astronomy

Sep. 02, 2014 Rise Set
Actual Time 7:30 AM CEST 8:31 PM CEST
Civil Twilight 7:03 AM CEST 8:58 PM CEST
Nautical Twilight 6:30 AM CEST 9:31 PM CEST
Astronomical Twilight 5:56 AM CEST 10:05 PM CEST
Moon 2:58 PM CEST 12:23 AM CEST
Length of Visible Light 13h 55m
Length of Day
13h 00m
Tomorrow will be 2m 29s shorter.
Waxing Crescent, 47% of the Moon is Illuminated
Sep 1
Waxing Crescent
Sep 2
First Quarter
Sep 8
Full
Sep 15
Last Quarter
Sep 24
New

Yesterday's Extremes

Country Highs Country Lows

Community

WunderPhotos

Upload Photos

1,749,557 photos uploaded!

WunderBlogs® & News

Nearby

Snow Depth

Not available.

Earthquake Activity

City Distance Mag. Time & Date
No recent earthquake activity has been reported nearby.
Minimum magnitude displayed is 2.5.

Coastal Water Temperatures

Place Temperature
No Stations Reporting

Nearby Weather Stations